createdAt,value
2019-02-14T00:01:25.924Z,5.33
2019-02-14T00:03:54.348Z,5.40
2019-02-14T00:06:22.079Z,5.60
2019-02-14T00:08:49.945Z,5.23
2019-02-14T00:11:18.205Z,5.67
2019-02-14T00:13:46.293Z,5.90
2019-02-14T00:16:14.234Z,5.90
2019-02-14T00:18:42.241Z,5.90
2019-02-14T00:21:09.974Z,6.10
2019-02-14T00:23:38.033Z,6.47
2019-02-14T00:26:05.714Z,7.20
2019-02-14T00:28:33.548Z,7.20
2019-02-14T00:31:02.051Z,6.40
2019-02-14T00:33:30.180Z,6.30
2019-02-14T00:35:58.460Z,6.07
2019-02-14T00:38:26.473Z,5.90
2019-02-14T00:40:54.414Z,5.60
2019-02-14T00:43:22.097Z,5.30
2019-02-14T00:45:50.066Z,5.43
2019-02-14T00:48:18.140Z,5.33
2019-02-14T00:50:46.303Z,5.47
2019-02-14T00:53:14.647Z,5.73
2019-02-14T00:55:42.608Z,6.10
2019-02-14T00:58:10.545Z,5.90
2019-02-14T01:00:38.942Z,6.10
2019-02-14T01:03:07.207Z,5.67
2019-02-14T01:05:35.674Z,5.63
2019-02-14T01:08:04.142Z,5.57
2019-02-14T01:10:32.497Z,5.30
2019-02-14T01:13:00.472Z,6.40
2019-02-14T01:15:28.756Z,5.27
2019-02-14T01:17:56.437Z,6.30
2019-02-14T01:20:24.122Z,6.47
2019-02-14T01:22:52.126Z,6.23
2019-02-14T01:25:20.668Z,5.40
2019-02-14T01:27:48.410Z,5.87
2019-02-14T01:30:16.418Z,5.97
2019-02-14T01:32:44.404Z,5.63
2019-02-14T01:35:12.440Z,5.47
2019-02-14T01:37:40.190Z,5.60
2019-02-14T01:40:08.181Z,5.33
2019-02-14T01:42:36.571Z,5.87
2019-02-14T01:45:05.315Z,5.33
2019-02-14T01:47:33.337Z,5.20
2019-02-14T01:50:01.589Z,4.73
2019-02-14T01:52:29.842Z,6.13
2019-02-14T01:54:58.007Z,6.07
2019-02-14T01:57:25.665Z,5.80
2019-02-14T01:59:53.666Z,5.53
2019-02-14T02:02:22.065Z,5.60
2019-02-14T02:04:50.150Z,5.50
2019-02-14T02:07:17.878Z,5.70
2019-02-14T02:09:45.570Z,5.57
2019-02-14T02:12:13.261Z,5.10
2019-02-14T02:14:41.868Z,5.20
2019-02-14T02:17:10.242Z,5.90
2019-02-14T02:19:37.900Z,5.50
2019-02-14T02:22:06.301Z,6.30
2019-02-14T02:24:34.305Z,5.67
2019-02-14T02:27:02.556Z,5.37
2019-02-14T02:29:30.622Z,5.90
2019-02-14T02:31:58.739Z,5.60
2019-02-14T02:34:27.313Z,6.10
2019-02-14T02:36:55.605Z,6.10
2019-02-14T02:39:23.281Z,5.17
2019-02-14T02:41:51.064Z,5.87
2019-02-14T02:44:19.023Z,5.93
2019-02-14T02:46:47.420Z,5.50
2019-02-14T02:49:15.662Z,5.33
2019-02-14T02:51:44.072Z,5.00
2019-02-14T02:54:11.809Z,5.70
2019-02-14T02:56:39.793Z,5.57
2019-02-14T02:59:07.827Z,5.40
2019-02-14T03:01:35.516Z,5.57
2019-02-14T03:04:03.605Z,5.70
2019-02-14T03:06:32.012Z,5.20
2019-02-14T03:09:00.126Z,5.60
2019-02-14T03:11:28.155Z,5.07
2019-02-14T03:13:56.798Z,5.17
2019-02-14T03:16:25.242Z,5.63
2019-02-14T03:18:53.301Z,5.57
2019-02-14T03:21:21.752Z,5.70
2019-02-14T03:23:50.077Z,6.23
2019-02-14T03:26:18.195Z,5.23
2019-02-14T03:28:45.881Z,5.40
2019-02-14T03:31:13.592Z,5.20
2019-02-14T03:33:41.682Z,6.17
2019-02-14T03:36:18.401Z,5.50
2019-02-14T03:38:39.479Z,5.63
2019-02-14T03:41:07.409Z,6.03
2019-02-14T03:43:35.794Z,5.37
2019-02-14T03:46:03.802Z,6.30
2019-02-14T03:48:32.181Z,6.20
2019-02-14T03:51:00.870Z,5.50
2019-02-14T03:53:28.893Z,5.50
2019-02-14T03:55:57.279Z,5.97
2019-02-14T03:58:25.220Z,5.80
2019-02-14T04:00:53.188Z,6.03
2019-02-14T04:03:21.001Z,5.70
2019-02-14T04:05:48.744Z,6.60
2019-02-14T04:08:16.696Z,5.30
2019-02-14T04:10:44.390Z,5.80
2019-02-14T04:13:12.752Z,6.00
2019-02-14T04:15:41.039Z,5.60
2019-02-14T04:18:09.345Z,5.37
2019-02-14T04:20:37.421Z,5.57
2019-02-14T04:23:05.431Z,5.70
2019-02-14T04:25:33.181Z,5.80
2019-02-14T04:28:01.920Z,5.57
2019-02-14T04:30:30.368Z,6.30
2019-02-14T04:32:58.480Z,5.47
2019-02-14T04:35:26.867Z,5.70
2019-02-14T04:37:55.478Z,5.80
2019-02-14T04:40:23.422Z,5.40
2019-02-14T04:42:51.702Z,5.10
2019-02-14T04:45:19.747Z,5.30
2019-02-14T04:47:47.654Z,5.50
2019-02-14T04:50:16.062Z,5.30
2019-02-14T04:52:44.417Z,5.30
2019-02-14T04:55:12.410Z,5.53
2019-02-14T04:57:40.381Z,5.30
2019-02-14T05:00:09.193Z,5.50
2019-02-14T05:02:36.846Z,5.33
2019-02-14T05:05:05.267Z,4.73
2019-02-14T05:07:33.320Z,5.77
2019-02-14T05:10:01.124Z,5.37
2019-02-14T05:12:28.869Z,5.37
2019-02-14T05:14:56.864Z,4.80
2019-02-14T05:17:25.544Z,5.63
2019-02-14T05:19:53.232Z,5.20
2019-02-14T05:22:21.746Z,5.30
2019-02-14T05:24:50.039Z,5.60
2019-02-14T05:27:18.430Z,5.50
2019-02-14T05:29:46.541Z,5.60
2019-02-14T05:32:14.855Z,6.37
2019-02-14T05:34:42.972Z,5.53
2019-02-14T05:37:11.579Z,5.67
2019-02-14T05:39:39.915Z,5.93
2019-02-14T05:42:07.598Z,5.60
2019-02-14T05:44:35.837Z,5.50
2019-02-14T05:47:03.907Z,5.97
2019-02-14T05:49:31.888Z,5.60
2019-02-14T05:51:59.937Z,5.80
2019-02-14T05:54:28.240Z,5.60
2019-02-14T05:56:56.282Z,5.33
2019-02-14T05:59:24.267Z,6.47
2019-02-14T06:01:52.401Z,5.53
2019-02-14T06:04:20.081Z,5.20
2019-02-14T06:06:48.101Z,5.50
2019-02-14T06:09:16.123Z,5.07
2019-02-14T06:11:43.893Z,4.90
2019-02-14T06:14:11.630Z,5.90
2019-02-14T06:16:39.857Z,5.67
2019-02-14T06:19:08.755Z,5.70
2019-02-14T06:21:37.239Z,5.03
2019-02-14T06:24:05.497Z,5.13
2019-02-14T06:26:33.505Z,5.30
2019-02-14T06:29:01.461Z,5.50
2019-02-14T06:31:29.713Z,5.30
2019-02-14T06:33:57.804Z,6.03
2019-02-14T06:36:25.772Z,5.47
2019-02-14T06:38:53.710Z,5.40
2019-02-14T06:41:21.379Z,5.20
2019-02-14T06:43:49.771Z,5.30
2019-02-14T06:46:17.709Z,5.47
2019-02-14T06:48:45.654Z,5.07
2019-02-14T06:51:13.896Z,4.73
2019-02-14T06:53:41.589Z,5.30
2019-02-14T06:56:09.627Z,4.87
2019-02-14T06:58:37.692Z,5.07
2019-02-14T07:01:06.106Z,5.33
2019-02-14T07:03:33.836Z,5.10
2019-02-14T07:06:01.898Z,5.53
2019-02-14T07:08:41.490Z,5.40
2019-02-14T07:11:09.833Z,4.80
2019-02-14T07:13:37.589Z,5.27
2019-02-14T07:16:05.564Z,5.50
2019-02-14T07:18:33.661Z,5.03
2019-02-14T07:21:02.110Z,5.30
2019-02-14T07:23:34.649Z,5.10
2019-02-14T07:26:02.351Z,5.10
2019-02-14T07:28:30.328Z,4.90
2019-02-14T07:30:58.367Z,4.93
2019-02-14T07:33:26.392Z,5.60
2019-02-14T07:35:54.329Z,5.27
2019-02-14T07:38:22.346Z,5.70
2019-02-14T07:40:50.018Z,4.87
2019-02-14T07:43:18.740Z,5.00
2019-02-14T07:45:46.429Z,5.47
2019-02-14T07:48:14.440Z,5.00
2019-02-14T07:50:42.784Z,5.23
2019-02-14T07:53:10.781Z,5.33
2019-02-14T07:55:38.764Z,5.30
2019-02-14T07:58:07.195Z,5.30
2019-02-14T08:00:34.879Z,5.07
2019-02-14T08:03:02.945Z,4.90
2019-02-14T08:05:30.636Z,5.40
2019-02-14T08:07:58.298Z,5.30
2019-02-14T08:10:26.374Z,5.20
2019-02-14T08:12:54.767Z,5.87
2019-02-14T08:15:23.125Z,6.40
2019-02-14T08:17:51.307Z,6.20
2019-02-14T08:20:19.425Z,7.13
2019-02-14T08:22:47.470Z,7.57
2019-02-14T08:25:16.090Z,7.53
2019-02-14T08:27:43.764Z,7.83
2019-02-14T08:30:12.761Z,7.77
2019-02-14T08:32:41.209Z,7.53
2019-02-14T08:35:08.986Z,7.20
2019-02-14T08:37:44.937Z,7.37
2019-02-14T08:40:08.215Z,7.53
2019-02-14T08:42:36.613Z,6.73
2019-02-14T08:45:05.028Z,7.50
2019-02-14T08:47:33.227Z,6.53
2019-02-14T08:50:01.197Z,6.87
2019-02-14T08:52:29.263Z,6.37
2019-02-14T08:54:56.925Z,6.37
2019-02-14T08:57:25.245Z,6.43
2019-02-14T08:59:53.225Z,6.60
2019-02-14T09:02:21.269Z,6.87
2019-02-14T09:04:49.505Z,6.83
2019-02-14T09:07:17.490Z,6.60
2019-02-14T09:09:45.878Z,6.00
2019-02-14T09:12:14.151Z,6.13
2019-02-14T09:14:42.358Z,5.57
2019-02-14T09:17:10.690Z,5.33
2019-02-14T09:19:39.377Z,6.37
2019-02-14T09:22:07.480Z,5.20
2019-02-14T09:24:35.896Z,6.10
2019-02-14T09:27:03.901Z,5.10
2019-02-14T09:29:31.953Z,5.27
2019-02-14T09:32:00.059Z,4.90
2019-02-14T09:34:28.046Z,5.20
2019-02-14T09:36:55.709Z,4.70
2019-02-14T09:39:23.465Z,4.70
2019-02-14T09:41:51.825Z,4.40
2019-02-14T09:44:19.585Z,4.37
2019-02-14T09:46:47.957Z,4.20
2019-02-14T09:49:16.330Z,4.00
2019-02-14T09:51:44.915Z,4.30
2019-02-14T09:54:12.906Z,4.27
2019-02-14T09:56:40.853Z,4.50
2019-02-14T09:59:08.882Z,4.43
2019-02-14T10:01:36.871Z,4.67
2019-02-14T10:04:04.817Z,5.27
2019-02-14T10:06:36.740Z,4.47
2019-02-14T10:09:04.411Z,4.47
2019-02-14T10:11:32.098Z,4.70
2019-02-14T10:13:59.761Z,4.33
2019-02-14T10:16:27.441Z,4.87
2019-02-14T10:18:55.505Z,4.20
2019-02-14T10:21:23.189Z,4.27
2019-02-14T10:23:51.862Z,4.30
2019-02-14T10:26:19.866Z,4.10
2019-02-14T10:28:47.930Z,4.53
2019-02-14T10:31:15.765Z,3.90
2019-02-14T10:33:43.801Z,4.43
2019-02-14T10:36:12.221Z,4.20
2019-02-14T10:38:40.917Z,4.27
2019-02-14T10:41:09.527Z,3.80
2019-02-14T10:43:37.270Z,3.80
2019-02-14T10:46:05.646Z,5.13
2019-02-14T10:48:34.042Z,4.17
2019-02-14T10:51:02.070Z,4.13
2019-02-14T10:53:30.065Z,3.80
2019-02-14T10:55:57.870Z,3.90
2019-02-14T10:58:25.997Z,4.10
2019-02-14T11:00:54.313Z,4.07
2019-02-14T11:03:22.783Z,4.27
2019-02-14T11:05:50.826Z,4.10
2019-02-14T11:08:18.509Z,3.70
2019-02-14T11:10:46.622Z,3.80
2019-02-14T11:13:14.849Z,3.77
2019-02-14T11:15:42.800Z,4.20
2019-02-14T11:18:10.477Z,3.50
2019-02-14T11:20:38.427Z,3.67
2019-02-14T11:23:06.099Z,3.37
2019-02-14T11:25:34.625Z,3.47
2019-02-14T11:28:02.936Z,3.50
2019-02-14T11:30:31.271Z,4.03
2019-02-14T11:32:59.618Z,3.50
2019-02-14T11:35:27.616Z,3.50
2019-02-14T11:37:55.644Z,3.63
2019-02-14T11:40:23.297Z,3.53
2019-02-14T11:42:51.267Z,3.53
2019-02-14T11:45:19.202Z,3.17
2019-02-14T11:47:47.286Z,3.60
2019-02-14T11:50:15.546Z,3.47
2019-02-14T11:52:43.312Z,3.23
2019-02-14T11:55:11.086Z,2.93
2019-02-14T11:57:39.149Z,3.10
2019-02-14T12:00:08.248Z,3.40
2019-02-14T12:02:37.922Z,3.20
2019-02-14T12:05:06.117Z,2.87
2019-02-14T12:07:33.865Z,2.70
2019-02-14T12:10:01.905Z,2.80
2019-02-14T12:12:29.616Z,2.90
2019-02-14T12:14:57.686Z,3.10
2019-02-14T12:17:25.725Z,2.60
2019-02-14T12:19:54.024Z,2.60
2019-02-14T12:22:22.085Z,2.80
2019-02-14T12:24:50.404Z,2.60
2019-02-14T12:27:18.657Z,2.50
2019-02-14T12:29:46.783Z,2.93
2019-02-14T12:32:14.935Z,2.70
2019-02-14T12:34:43.042Z,2.90
2019-02-14T12:37:12.209Z,3.33
2019-02-14T12:39:40.330Z,3.23
2019-02-14T12:42:08.440Z,2.80
2019-02-14T12:44:36.779Z,2.70
2019-02-14T12:47:04.846Z,3.00
2019-02-14T12:49:33.140Z,2.73
2019-02-14T12:52:01.105Z,3.20
2019-02-14T12:54:29.049Z,2.37
2019-02-14T12:56:56.707Z,2.63
2019-02-14T12:59:25.018Z,2.70
2019-02-14T13:01:53.317Z,3.00
2019-02-14T13:04:21.415Z,2.80
2019-02-14T13:06:49.856Z,2.30
2019-02-14T13:09:20.182Z,2.60
2019-02-14T13:11:47.650Z,2.30
2019-02-14T13:14:15.975Z,2.33
2019-02-14T13:16:44.065Z,2.10
2019-02-14T13:19:12.467Z,1.93
2019-02-14T13:21:40.511Z,1.63
2019-02-14T13:24:09.107Z,2.20
2019-02-14T13:26:37.233Z,1.73
2019-02-14T13:29:04.969Z,1.90
2019-02-14T13:31:32.913Z,2.10
2019-02-14T13:34:01.319Z,1.80
2019-02-14T13:36:29.053Z,1.60
2019-02-14T13:38:57.031Z,1.83
2019-02-14T13:41:31.221Z,2.50
2019-02-14T13:43:55.044Z,2.17
2019-02-14T13:46:23.486Z,2.10
2019-02-14T13:48:51.913Z,1.90
2019-02-14T13:51:19.711Z,2.10
2019-02-14T13:53:47.762Z,1.53
2019-02-14T13:56:16.150Z,2.20
2019-02-14T13:58:44.114Z,1.77
2019-02-14T14:01:12.340Z,2.10
2019-02-14T14:03:40.938Z,2.40
2019-02-14T14:06:08.954Z,1.90
2019-02-14T14:08:36.939Z,1.97
2019-02-14T14:11:04.885Z,2.00
2019-02-14T14:13:32.974Z,1.87
2019-02-14T14:16:00.966Z,2.30
2019-02-14T14:18:29.041Z,1.90
2019-02-14T14:20:57.842Z,2.23
2019-02-14T14:23:25.949Z,2.00
2019-02-14T14:25:53.946Z,1.93
2019-02-14T14:28:22.455Z,2.23
2019-02-14T14:30:51.146Z,2.07
2019-02-14T14:33:19.541Z,2.10
2019-02-14T14:35:48.186Z,2.73
2019-02-14T14:38:16.220Z,2.00
2019-02-14T14:40:44.569Z,1.97
2019-02-14T14:43:30.834Z,2.10
2019-02-14T14:46:17.873Z,2.20
2019-02-14T14:48:46.172Z,2.57
2019-02-14T14:51:14.245Z,2.10
2019-02-14T14:53:42.471Z,1.80
2019-02-14T14:56:10.841Z,2.07
2019-02-14T14:58:38.841Z,2.10
2019-02-14T15:01:07.259Z,1.80
2019-02-14T15:03:35.010Z,1.80
2019-02-14T15:06:02.757Z,1.80
2019-02-14T15:08:30.861Z,1.87
2019-02-14T15:10:58.568Z,1.30
2019-02-14T15:13:26.237Z,1.60
2019-02-14T15:15:58.553Z,1.90
2019-02-14T15:18:34.436Z,1.63
2019-02-14T15:21:02.156Z,1.97
2019-02-14T15:23:30.301Z,1.63
2019-02-14T15:25:58.300Z,1.70
2019-02-14T15:28:26.712Z,1.57
2019-02-14T15:30:55.014Z,1.90
2019-02-14T15:33:23.046Z,1.60
2019-02-14T15:35:51.146Z,1.80
2019-02-14T15:38:18.831Z,1.73
2019-02-14T15:40:46.928Z,1.70
2019-02-14T15:43:14.716Z,1.60
2019-02-14T15:45:42.395Z,1.80
2019-02-14T15:48:10.481Z,1.70
2019-02-14T15:50:39.280Z,1.60
2019-02-14T15:53:07.701Z,1.90
2019-02-14T15:55:36.257Z,1.90
2019-02-14T15:58:04.426Z,2.00
2019-02-14T16:00:35.145Z,1.73
2019-02-14T16:03:03.242Z,1.80
2019-02-14T16:05:31.318Z,2.00
2019-02-14T16:08:00.507Z,1.70
2019-02-14T16:10:29.705Z,1.70
2019-02-14T16:12:57.731Z,1.90
2019-02-14T16:15:25.747Z,1.87
2019-02-14T16:17:53.418Z,2.00
2019-02-14T16:20:21.773Z,1.90
2019-02-14T16:22:50.046Z,1.77
2019-02-14T16:25:18.735Z,1.60
2019-02-14T16:27:48.293Z,1.90
2019-02-14T16:30:17.350Z,1.93
2019-02-14T16:32:45.383Z,1.80
2019-02-14T16:35:13.602Z,1.87
2019-02-14T16:37:41.850Z,1.73
2019-02-14T16:40:09.589Z,2.00
2019-02-14T16:42:37.301Z,2.00
2019-02-14T16:45:05.134Z,1.50
2019-02-14T16:47:33.146Z,1.70
2019-02-14T16:50:01.583Z,2.20
2019-02-14T16:52:29.235Z,3.03
2019-02-14T16:54:57.292Z,4.10
2019-02-14T16:57:25.670Z,3.90
2019-02-14T16:59:54.011Z,2.90
2019-02-14T17:02:22.396Z,2.70
2019-02-14T17:04:50.331Z,2.80
2019-02-14T17:07:18.286Z,2.40
2019-02-14T17:09:46.310Z,2.23
2019-02-14T17:12:14.043Z,2.43
2019-02-14T17:14:42.193Z,2.20
2019-02-14T17:17:10.103Z,2.77
2019-02-14T17:19:38.124Z,2.67
2019-02-14T17:22:06.191Z,3.07
2019-02-14T17:24:34.220Z,2.33
2019-02-14T17:27:02.634Z,2.30
2019-02-14T17:29:30.898Z,2.60
2019-02-14T17:31:59.297Z,2.50
2019-02-14T17:34:27.395Z,3.00
2019-02-14T17:36:55.689Z,2.10
2019-02-14T17:39:24.002Z,2.63
2019-02-14T17:41:51.765Z,4.10
2019-02-14T17:44:19.443Z,3.10
2019-02-14T17:46:47.444Z,3.43
2019-02-14T17:49:15.749Z,3.07
2019-02-14T17:51:43.676Z,2.73
2019-02-14T17:54:11.694Z,2.10
2019-02-14T17:56:39.960Z,2.60
2019-02-14T17:59:08.062Z,3.23
2019-02-14T18:01:36.465Z,2.73
2019-02-14T18:04:04.525Z,2.90
2019-02-14T18:06:32.719Z,2.50
2019-02-14T18:09:00.653Z,2.60
2019-02-14T18:11:28.604Z,2.90
2019-02-14T18:13:56.617Z,2.50
2019-02-14T18:16:24.284Z,2.00
2019-02-14T18:18:52.610Z,2.03
2019-02-14T18:21:20.660Z,2.40
2019-02-14T18:23:48.852Z,2.67
2019-02-14T18:26:16.896Z,4.23
2019-02-14T18:28:45.505Z,6.40
2019-02-14T18:31:14.193Z,5.93
2019-02-14T18:33:42.364Z,4.10
2019-02-14T18:36:10.466Z,4.20
2019-02-14T18:38:38.219Z,3.53
2019-02-14T18:41:05.932Z,2.70
2019-02-14T18:43:34.241Z,2.50
2019-02-14T18:46:02.261Z,2.33
2019-02-14T18:48:30.272Z,2.40
2019-02-14T18:50:57.934Z,2.60
2019-02-14T18:53:25.934Z,3.27
2019-02-14T18:55:54.704Z,2.40
2019-02-14T18:58:26.400Z,2.57
2019-02-14T19:00:52.952Z,2.60
2019-02-14T19:03:22.872Z,3.10
2019-02-14T19:05:50.607Z,2.57
2019-02-14T19:08:18.616Z,2.40
2019-02-14T19:10:46.869Z,2.70
2019-02-14T19:13:14.886Z,2.47
2019-02-14T19:15:42.962Z,2.40
2019-02-14T19:18:11.245Z,3.00
2019-02-14T19:20:39.694Z,2.80
2019-02-14T19:23:07.686Z,2.63
2019-02-14T19:25:35.443Z,2.67
2019-02-14T19:28:03.211Z,2.67
2019-02-14T19:30:31.199Z,2.57
2019-02-14T19:32:59.473Z,2.53
2019-02-14T19:35:27.148Z,2.50
2019-02-14T19:37:55.373Z,2.90
2019-02-14T19:40:23.325Z,2.33
2019-02-14T19:42:51.473Z,2.70
2019-02-14T19:45:20.246Z,2.83
2019-02-14T19:47:47.906Z,2.67
2019-02-14T19:50:15.618Z,2.77
2019-02-14T19:52:43.342Z,2.87
2019-02-14T19:55:11.350Z,2.47
2019-02-14T19:57:39.389Z,2.30
2019-02-14T20:00:08.502Z,2.50
2019-02-14T20:02:36.919Z,2.70
2019-02-14T20:05:05.521Z,3.03
2019-02-14T20:07:33.536Z,3.13
2019-02-14T20:10:01.555Z,2.40
2019-02-14T20:12:29.533Z,3.10
2019-02-14T20:14:57.521Z,3.40
2019-02-14T20:17:25.952Z,2.63
2019-02-14T20:19:53.654Z,2.83
2019-02-14T20:22:21.924Z,2.70
2019-02-14T20:24:49.912Z,2.70
2019-02-14T20:27:18.069Z,3.40
2019-02-14T20:29:46.005Z,4.17
2019-02-14T20:32:14.486Z,3.43
2019-02-14T20:34:42.456Z,3.50
2019-02-14T20:37:10.861Z,3.27
2019-02-14T20:39:38.965Z,3.10
2019-02-14T20:42:06.985Z,2.70
2019-02-14T20:44:34.977Z,3.00
2019-02-14T20:47:02.749Z,3.07
2019-02-14T20:49:30.825Z,3.00
2019-02-14T20:51:58.856Z,3.07
2019-02-14T20:54:26.760Z,3.10
2019-02-14T20:56:54.819Z,3.40
2019-02-14T20:59:23.094Z,2.87
2019-02-14T21:01:50.830Z,3.10
2019-02-14T21:04:19.208Z,2.97
2019-02-14T21:06:47.132Z,2.90
2019-02-14T21:09:15.169Z,3.10
2019-02-14T21:11:42.913Z,3.23
2019-02-14T21:14:11.258Z,3.20
2019-02-14T21:16:39.325Z,3.20
2019-02-14T21:19:07.222Z,3.00
2019-02-14T21:21:35.240Z,3.00
2019-02-14T21:24:02.975Z,2.57
2019-02-14T21:26:30.955Z,3.00
2019-02-14T21:28:58.974Z,3.40
2019-02-14T21:31:26.857Z,3.40
2019-02-14T21:33:55.441Z,3.30
2019-02-14T21:36:23.376Z,3.00
2019-02-14T21:38:51.557Z,3.63
2019-02-14T21:41:19.250Z,3.27
2019-02-14T21:43:47.293Z,3.27
2019-02-14T21:46:15.347Z,3.13
2019-02-14T21:48:43.287Z,2.83
2019-02-14T21:51:11.074Z,3.30
2019-02-14T21:53:39.133Z,3.10
2019-02-14T21:56:07.261Z,3.07
2019-02-14T21:58:35.205Z,3.00
2019-02-14T22:01:03.142Z,3.37
2019-02-14T22:03:31.123Z,2.97
2019-02-14T22:05:59.907Z,3.50
2019-02-14T22:08:27.572Z,3.70
2019-02-14T22:10:55.916Z,3.80
2019-02-14T22:13:24.846Z,4.20
2019-02-14T22:15:53.369Z,4.23
2019-02-14T22:18:21.565Z,3.03
2019-02-14T22:20:49.661Z,4.00
2019-02-14T22:23:17.761Z,3.03
2019-02-14T22:25:45.472Z,3.80
2019-02-14T22:28:13.302Z,3.20
2019-02-14T22:30:41.328Z,3.80
2019-02-14T22:33:09.728Z,3.80
2019-02-14T22:35:38.394Z,3.73
2019-02-14T22:38:07.244Z,3.57
2019-02-14T22:40:35.497Z,4.03
2019-02-14T22:43:03.953Z,3.67
2019-02-14T22:45:31.617Z,4.03
2019-02-14T22:47:59.924Z,3.47
2019-02-14T22:50:27.622Z,3.60
2019-02-14T22:52:55.301Z,4.30
2019-02-14T22:55:23.598Z,4.37
2019-02-14T22:57:52.012Z,3.80
2019-02-14T23:00:32.289Z,3.43
2019-02-14T23:03:00.310Z,4.40
2019-02-14T23:05:28.260Z,4.80
2019-02-14T23:07:56.539Z,4.03
2019-02-14T23:10:25.440Z,4.20
2019-02-14T23:12:55.735Z,4.57
2019-02-14T23:15:23.157Z,4.00
2019-02-14T23:17:51.253Z,3.60
2019-02-14T23:20:19.341Z,3.50
2019-02-14T23:22:47.282Z,3.13
2019-02-14T23:25:15.610Z,4.00
2019-02-14T23:27:43.287Z,3.77
2019-02-14T23:30:11.057Z,3.60
2019-02-14T23:32:38.722Z,3.73
2019-02-14T23:35:06.509Z,3.33
2019-02-14T23:37:34.173Z,3.10
2019-02-14T23:40:02.354Z,3.70
2019-02-14T23:42:31.087Z,3.70
2019-02-14T23:44:59.050Z,3.50
2019-02-14T23:47:27.535Z,3.60
2019-02-14T23:49:55.204Z,3.10
2019-02-14T23:52:23.570Z,3.60
2019-02-14T23:54:51.575Z,3.43
2019-02-14T23:57:19.650Z,3.50
2019-02-14T23:59:48.031Z,3.10
